createdAt,value
2022-10-08T00:00:52.409Z,0.00
2022-10-08T00:01:52.617Z,0.00
2022-10-08T00:02:52.628Z,0.00
2022-10-08T00:03:52.849Z,0.00
2022-10-08T00:04:52.867Z,0.00
2022-10-08T00:05:53.143Z,0.00
2022-10-08T00:06:53.104Z,0.00
2022-10-08T00:07:53.218Z,0.00
2022-10-08T00:08:53.330Z,0.00
2022-10-08T00:09:53.436Z,0.00
2022-10-08T00:10:53.569Z,0.00
2022-10-08T00:11:53.685Z,0.00
2022-10-08T00:12:53.846Z,0.00
2022-10-08T00:13:53.937Z,0.00
2022-10-08T00:14:54.095Z,0.00
2022-10-08T00:15:54.201Z,0.00
2022-10-08T00:16:54.252Z,0.00
2022-10-08T00:17:54.397Z,0.00
2022-10-08T00:18:54.455Z,0.00
2022-10-08T00:19:54.596Z,0.00
2022-10-08T00:20:54.723Z,0.00
2022-10-08T00:21:54.836Z,0.00
2022-10-08T00:22:54.965Z,0.00
2022-10-08T00:23:55.083Z,0.00
2022-10-08T00:24:55.203Z,0.00
2022-10-08T00:25:55.350Z,0.00
2022-10-08T00:26:55.458Z,0.00
2022-10-08T00:27:55.561Z,0.00
2022-10-08T00:28:55.682Z,0.00
2022-10-08T00:29:55.816Z,0.00
2022-10-08T00:30:55.918Z,0.00
2022-10-08T00:31:56.089Z,0.00
2022-10-08T00:32:59.769Z,0.00
2022-10-08T00:33:56.231Z,0.00
2022-10-08T00:34:56.370Z,0.00
2022-10-08T00:35:56.469Z,0.00
2022-10-08T00:36:56.580Z,0.00
2022-10-08T00:37:56.690Z,0.00
2022-10-08T00:38:56.804Z,0.00
2022-10-08T00:39:56.919Z,0.00
2022-10-08T00:40:57.028Z,0.00
2022-10-08T00:41:57.160Z,0.00
2022-10-08T00:42:57.268Z,0.00
2022-10-08T00:43:57.421Z,0.00
2022-10-08T00:44:57.538Z,0.00
2022-10-08T00:45:57.687Z,0.00
2022-10-08T00:46:57.789Z,0.00
2022-10-08T00:47:57.949Z,0.00
2022-10-08T00:48:58.059Z,0.00
2022-10-08T00:49:58.220Z,0.00
2022-10-08T00:50:58.338Z,0.00
2022-10-08T00:51:58.475Z,0.00
2022-10-08T00:52:58.557Z,0.00
2022-10-08T00:53:58.737Z,0.00
2022-10-08T00:54:58.901Z,0.00
2022-10-08T00:55:58.975Z,0.00
2022-10-08T00:56:59.087Z,0.00
2022-10-08T00:57:59.215Z,0.00
2022-10-08T00:58:59.334Z,0.00
2022-10-08T00:59:59.451Z,0.00
2022-10-08T01:00:59.573Z,0.00
2022-10-08T01:01:59.697Z,0.00
2022-10-08T01:02:59.814Z,0.00
2022-10-08T01:03:59.904Z,0.00
2022-10-08T01:05:00.156Z,0.00
2022-10-08T01:06:00.210Z,0.00
2022-10-08T01:07:00.302Z,0.00
2022-10-08T01:08:00.394Z,0.00
2022-10-08T01:09:00.566Z,0.00
2022-10-08T01:10:00.725Z,0.00
2022-10-08T01:11:00.783Z,0.00
2022-10-08T01:12:00.904Z,0.00
2022-10-08T01:13:01.022Z,0.00
2022-10-08T01:14:01.121Z,0.00
2022-10-08T01:15:01.361Z,0.00
2022-10-08T01:16:01.405Z,0.00
2022-10-08T01:17:01.578Z,0.00
2022-10-08T01:18:01.631Z,0.00
2022-10-08T01:19:01.751Z,0.00
2022-10-08T01:20:01.891Z,0.00
2022-10-08T01:21:02.111Z,0.00
2022-10-08T01:22:02.131Z,0.00
2022-10-08T01:23:02.219Z,0.00
2022-10-08T01:24:02.330Z,0.00
2022-10-08T01:25:02.460Z,0.00
2022-10-08T01:26:02.559Z,0.00
2022-10-08T01:27:02.670Z,0.00
2022-10-08T01:28:02.887Z,0.00
2022-10-08T01:29:02.943Z,0.00
2022-10-08T01:30:03.118Z,0.00
2022-10-08T01:31:03.229Z,0.00
2022-10-08T01:32:03.522Z,0.00
2022-10-08T01:33:03.448Z,0.00
2022-10-08T01:34:03.596Z,0.00
2022-10-08T01:35:03.728Z,0.00
2022-10-08T01:36:03.836Z,0.00
2022-10-08T01:37:03.946Z,0.00
2022-10-08T01:38:04.074Z,0.00
2022-10-08T01:39:04.183Z,0.00
2022-10-08T01:40:04.335Z,0.00
2022-10-08T01:41:04.363Z,0.00
2022-10-08T01:42:04.495Z,0.00
2022-10-08T01:43:04.686Z,0.00
2022-10-08T01:44:04.826Z,0.00
2022-10-08T01:45:04.964Z,0.00
2022-10-08T01:46:05.203Z,0.00
2022-10-08T01:47:05.177Z,0.00
2022-10-08T01:48:05.345Z,0.00
2022-10-08T01:49:05.444Z,0.00
2022-10-08T01:50:05.678Z,0.00
2022-10-08T01:51:05.704Z,0.00
2022-10-08T01:52:05.815Z,0.00
2022-10-08T01:53:05.922Z,0.00
2022-10-08T01:54:06.023Z,0.00
2022-10-08T01:55:06.172Z,0.00
2022-10-08T01:56:06.301Z,0.00
2022-10-08T01:57:06.408Z,0.00
2022-10-08T01:58:06.501Z,0.00
2022-10-08T01:59:06.603Z,0.00
2022-10-08T02:00:06.764Z,0.00
2022-10-08T02:01:06.865Z,0.00
2022-10-08T02:02:07.037Z,0.00
2022-10-08T02:03:07.071Z,0.00
2022-10-08T02:04:07.202Z,0.00
2022-10-08T02:05:07.354Z,0.00
2022-10-08T02:06:07.450Z,0.00
2022-10-08T02:07:07.571Z,0.00
2022-10-08T02:08:07.680Z,0.00
2022-10-08T02:09:07.817Z,0.00
2022-10-08T02:10:08.098Z,0.00
2022-10-08T02:11:08.069Z,0.00
2022-10-08T02:12:08.187Z,0.00
2022-10-08T02:13:08.299Z,0.00
2022-10-08T02:14:08.408Z,0.00
2022-10-08T02:15:08.677Z,0.00
2022-10-08T02:16:08.746Z,0.00
2022-10-08T02:17:08.786Z,0.00
2022-10-08T02:18:08.927Z,0.00
2022-10-08T02:19:09.046Z,0.00
2022-10-08T02:20:09.277Z,0.00
2022-10-08T02:21:09.297Z,0.00
2022-10-08T02:22:09.405Z,0.00
2022-10-08T02:23:09.509Z,0.00
2022-10-08T02:24:09.674Z,0.00
2022-10-08T02:25:09.934Z,0.00
2022-10-08T02:26:09.925Z,0.00
2022-10-08T02:27:10.034Z,0.00
2022-10-08T02:28:10.182Z,0.00
2022-10-08T02:29:10.248Z,0.00
2022-10-08T02:30:10.575Z,0.00
2022-10-08T02:31:10.514Z,0.00
2022-10-08T02:32:10.704Z,0.00
2022-10-08T02:33:10.772Z,0.00
2022-10-08T02:34:10.914Z,0.00
2022-10-08T02:35:11.034Z,0.00
2022-10-08T02:36:11.110Z,0.00
2022-10-08T02:37:11.203Z,0.00
2022-10-08T02:38:11.352Z,0.00
2022-10-08T02:39:11.491Z,0.00
2022-10-08T02:40:11.603Z,0.00
2022-10-08T02:41:11.702Z,0.00
2022-10-08T02:42:11.831Z,0.00
2022-10-08T02:43:11.953Z,0.00
2022-10-08T02:44:12.131Z,0.00
2022-10-08T02:45:12.183Z,0.00
2022-10-08T02:46:12.370Z,0.00
2022-10-08T02:47:12.431Z,0.00
2022-10-08T02:48:12.600Z,0.00
2022-10-08T02:49:12.902Z,0.00
2022-10-08T02:50:12.828Z,0.00
2022-10-08T02:51:12.949Z,0.00
2022-10-08T02:52:13.047Z,0.00
2022-10-08T02:53:13.234Z,0.00
2022-10-08T02:54:13.500Z,0.00
2022-10-08T02:55:13.436Z,0.00
2022-10-08T02:56:13.537Z,0.00
2022-10-08T02:57:13.648Z,0.00
2022-10-08T02:58:13.760Z,0.00
2022-10-08T02:59:13.957Z,0.00
2022-10-08T03:00:13.979Z,0.00
2022-10-08T03:01:14.145Z,0.00
2022-10-08T03:02:14.312Z,0.00
2022-10-08T03:03:14.347Z,0.00
2022-10-08T03:04:14.638Z,0.00
2022-10-08T03:05:14.587Z,0.00
2022-10-08T03:06:14.756Z,0.00
2022-10-08T03:07:14.887Z,0.00
2022-10-08T03:08:15.004Z,0.00
2022-10-08T03:09:15.281Z,0.00
2022-10-08T03:10:15.236Z,0.00
2022-10-08T03:11:15.333Z,0.00
2022-10-08T03:12:15.473Z,0.00
2022-10-08T03:13:15.599Z,0.00
2022-10-08T03:14:15.834Z,0.00
2022-10-08T03:15:15.843Z,0.00
2022-10-08T03:16:16.002Z,0.00
2022-10-08T03:17:16.062Z,0.00
2022-10-08T03:18:16.212Z,0.00
2022-10-08T03:19:16.450Z,0.00
2022-10-08T03:20:16.461Z,0.00
2022-10-08T03:21:16.590Z,0.00
2022-10-08T03:22:16.714Z,0.00
2022-10-08T03:23:16.830Z,0.00
2022-10-08T03:24:16.951Z,0.00
2022-10-08T03:25:17.050Z,0.00
2022-10-08T03:26:17.140Z,0.00
2022-10-08T03:27:17.309Z,0.00
2022-10-08T03:28:17.442Z,0.00
2022-10-08T03:29:17.640Z,0.00
2022-10-08T03:30:17.659Z,0.00
2022-10-08T03:31:17.825Z,0.00
2022-10-08T03:32:17.859Z,0.00
2022-10-08T03:33:18.038Z,0.00
2022-10-08T03:34:18.238Z,0.00
2022-10-08T03:35:18.296Z,0.00
2022-10-08T03:36:18.394Z,0.00
2022-10-08T03:37:18.579Z,0.00
2022-10-08T03:38:18.717Z,0.00
2022-10-08T03:39:18.747Z,0.00
2022-10-08T03:40:18.908Z,0.00
2022-10-08T03:41:19.016Z,0.00
2022-10-08T03:42:19.173Z,0.00
2022-10-08T03:43:19.373Z,0.00
2022-10-08T03:44:19.381Z,0.00
2022-10-08T03:45:19.466Z,0.00
2022-10-08T03:46:19.634Z,0.00
2022-10-08T03:47:19.711Z,0.00
2022-10-08T03:48:19.879Z,0.00
2022-10-08T03:49:20.109Z,0.00
2022-10-08T03:50:20.076Z,0.00
2022-10-08T03:51:20.187Z,0.00
2022-10-08T03:52:20.347Z,0.00
2022-10-08T03:53:20.443Z,0.00
2022-10-08T03:54:20.534Z,0.00
2022-10-08T03:55:20.634Z,0.00
2022-10-08T03:56:20.766Z,0.00
2022-10-08T03:57:20.921Z,0.00
2022-10-08T03:58:21.027Z,0.00
2022-10-08T03:59:21.272Z,0.00
2022-10-08T04:00:21.274Z,0.00
2022-10-08T04:01:21.395Z,0.00
2022-10-08T04:02:21.569Z,0.00
2022-10-08T04:03:21.683Z,0.00
2022-10-08T04:04:25.381Z,0.00
2022-10-08T04:05:21.913Z,0.00
2022-10-08T04:06:22.042Z,0.00
2022-10-08T04:07:22.181Z,0.00
2022-10-08T04:08:22.354Z,0.00
2022-10-08T04:09:22.456Z,0.00
2022-10-08T04:10:22.606Z,0.00
2022-10-08T04:11:22.720Z,0.00
2022-10-08T04:12:22.862Z,0.00
2022-10-08T04:13:22.991Z,0.00
2022-10-08T04:14:23.278Z,0.00
2022-10-08T04:15:23.225Z,0.00
2022-10-08T04:16:23.329Z,0.00
2022-10-08T04:17:23.449Z,0.00
2022-10-08T04:18:23.549Z,0.00
2022-10-08T04:19:23.660Z,0.00
2022-10-08T04:20:23.778Z,0.00
2022-10-08T04:21:23.879Z,0.00
2022-10-08T04:22:24.021Z,0.00
2022-10-08T04:23:24.200Z,0.00
2022-10-08T04:24:24.310Z,0.00
2022-10-08T04:25:24.418Z,0.00
2022-10-08T04:26:24.536Z,0.00
2022-10-08T04:27:24.628Z,0.00
2022-10-08T04:28:24.864Z,0.00
2022-10-08T04:29:24.894Z,0.00
2022-10-08T04:30:25.035Z,0.00
2022-10-08T04:31:25.176Z,0.00
2022-10-08T04:32:25.225Z,0.00
2022-10-08T04:33:25.434Z,0.00
2022-10-08T04:34:25.516Z,0.00
2022-10-08T04:35:25.674Z,0.00
2022-10-08T04:36:25.754Z,0.00
2022-10-08T04:37:25.884Z,0.00
2022-10-08T04:38:26.073Z,0.00
2022-10-08T04:39:26.374Z,0.00
2022-10-08T04:40:26.324Z,0.00
2022-10-08T04:41:26.425Z,0.00
2022-10-08T04:42:26.557Z,0.00
2022-10-08T04:43:26.691Z,0.00
2022-10-08T04:44:26.794Z,0.00
2022-10-08T04:45:26.882Z,0.00
2022-10-08T04:46:27.036Z,0.00
2022-10-08T04:47:27.129Z,0.00
2022-10-08T04:48:27.292Z,0.00
2022-10-08T04:49:27.471Z,0.00
2022-10-08T04:50:27.472Z,0.00
2022-10-08T04:51:27.564Z,0.00
2022-10-08T04:52:27.715Z,0.00
2022-10-08T04:53:27.841Z,0.00
2022-10-08T04:54:27.931Z,0.00
2022-10-08T04:55:28.095Z,0.00
2022-10-08T04:56:28.190Z,0.00
2022-10-08T04:57:28.329Z,0.00
2022-10-08T04:58:28.508Z,0.00
2022-10-08T04:59:28.585Z,0.00
2022-10-08T05:00:28.668Z,0.00
2022-10-08T05:01:28.900Z,0.00
2022-10-08T05:02:28.968Z,0.00
2022-10-08T05:03:29.149Z,0.00
2022-10-08T05:04:29.389Z,0.00
2022-10-08T05:05:29.336Z,0.00
2022-10-08T05:06:29.428Z,0.00
2022-10-08T05:07:29.566Z,0.00
2022-10-08T05:08:29.788Z,0.00
2022-10-08T05:09:29.839Z,0.00
2022-10-08T05:10:29.966Z,0.00
2022-10-08T05:11:30.086Z,0.00
2022-10-08T05:12:30.176Z,0.00
2022-10-08T05:13:30.347Z,0.00
2022-10-08T05:14:30.459Z,0.00
2022-10-08T05:15:30.610Z,0.00
2022-10-08T05:16:30.697Z,0.00
2022-10-08T05:17:30.845Z,0.00
2022-10-08T05:18:31.004Z,0.00
2022-10-08T05:19:31.064Z,4.00
2022-10-08T05:20:31.165Z,4.00
2022-10-08T05:21:31.311Z,4.00
2022-10-08T05:22:31.433Z,0.00
2022-10-08T05:23:31.603Z,4.00
2022-10-08T05:24:31.731Z,4.00
2022-10-08T05:25:31.804Z,4.00
2022-10-08T05:27:33.052Z,8.00
2022-10-08T05:28:32.249Z,12.00
2022-10-08T05:29:32.352Z,16.00
2022-10-08T05:30:32.489Z,16.00
2022-10-08T05:31:32.628Z,20.00
2022-10-08T05:32:32.671Z,24.00
2022-10-08T05:33:32.851Z,28.00
2022-10-08T05:34:32.973Z,24.00
2022-10-08T05:35:33.091Z,32.00
2022-10-08T05:36:33.255Z,28.00
2022-10-08T05:37:33.361Z,36.00
2022-10-08T05:38:35.202Z,48.00
2022-10-08T05:39:33.629Z,56.00
2022-10-08T05:40:33.779Z,60.00
2022-10-08T05:41:33.881Z,76.00
2022-10-08T05:42:34.034Z,80.00
2022-10-08T05:43:34.358Z,84.00
2022-10-08T05:44:37.640Z,92.00
2022-10-08T05:45:34.457Z,104.00
2022-10-08T05:46:34.634Z,120.00
2022-10-08T05:47:34.661Z,144.00
2022-10-08T05:48:34.999Z,124.00
2022-10-08T05:49:34.935Z,132.00
2022-10-08T05:50:35.068Z,124.00
2022-10-08T05:51:35.157Z,140.00
2022-10-08T05:52:35.288Z,172.00
2022-10-08T05:53:36.507Z,200.00
2022-10-08T05:54:35.550Z,224.00
2022-10-08T05:55:35.701Z,252.00
2022-10-08T05:56:35.849Z,244.00
2022-10-08T05:57:35.937Z,240.00
2022-10-08T05:58:36.106Z,212.00
2022-10-08T05:59:36.192Z,188.00
2022-10-08T06:00:36.314Z,180.00
2022-10-08T06:01:36.414Z,192.00
2022-10-08T06:02:36.658Z,244.00
2022-10-08T06:03:36.723Z,252.00
2022-10-08T06:04:36.816Z,276.00
2022-10-08T06:05:36.885Z,292.00
2022-10-08T06:06:36.971Z,292.00
2022-10-08T06:07:37.143Z,264.00
2022-10-08T06:08:37.284Z,292.00
2022-10-08T06:09:37.402Z,292.00
2022-10-08T06:10:37.543Z,320.00
2022-10-08T06:11:37.666Z,320.00
2022-10-08T06:12:37.804Z,304.00
2022-10-08T06:13:37.979Z,360.00
2022-10-08T06:14:38.023Z,276.00
2022-10-08T06:15:38.116Z,292.00
2022-10-08T06:16:38.304Z,272.00
2022-10-08T06:17:38.412Z,352.00
2022-10-08T06:18:38.662Z,468.00
2022-10-08T06:19:38.672Z,400.00
2022-10-08T06:20:38.819Z,392.00
2022-10-08T06:21:38.890Z,452.00
2022-10-08T06:22:38.976Z,552.00
2022-10-08T06:23:39.130Z,540.00
2022-10-08T06:24:39.304Z,788.00
2022-10-08T06:25:39.370Z,772.00
2022-10-08T06:26:39.499Z,948.00
2022-10-08T06:27:39.600Z,832.00
2022-10-08T06:28:39.801Z,908.00
2022-10-08T06:29:39.835Z,796.00
2022-10-08T06:30:40.005Z,892.00
2022-10-08T06:31:40.280Z,1192.00
2022-10-08T06:32:40.308Z,1108.00
2022-10-08T06:33:40.429Z,1196.00
2022-10-08T06:34:40.539Z,992.00
2022-10-08T06:35:40.644Z,1056.00
2022-10-08T06:36:40.746Z,1360.00
2022-10-08T06:37:40.865Z,1252.00
2022-10-08T06:38:41.047Z,1124.00
2022-10-08T06:39:44.935Z,1460.00
2022-10-08T06:40:42.242Z,1080.00
2022-10-08T06:41:41.357Z,1008.00
2022-10-08T06:42:41.412Z,928.00
2022-10-08T06:43:41.744Z,888.00
2022-10-08T06:44:41.644Z,816.00
2022-10-08T06:45:41.747Z,836.00
2022-10-08T06:46:41.867Z,652.00
2022-10-08T06:47:41.987Z,736.00
2022-10-08T06:48:42.157Z,636.00
2022-10-08T06:49:42.356Z,512.00
2022-10-08T06:50:42.413Z,560.00
2022-10-08T06:51:42.520Z,592.00
2022-10-08T06:52:42.670Z,592.00
2022-10-08T06:53:42.926Z,612.00
2022-10-08T06:54:42.934Z,784.00
2022-10-08T06:55:43.023Z,1020.00
2022-10-08T06:56:43.192Z,952.00
2022-10-08T06:57:43.280Z,1260.00
2022-10-08T06:58:43.601Z,1496.00
2022-10-08T06:59:43.531Z,1632.00
2022-10-08T07:00:43.679Z,1456.00
2022-10-08T07:01:44.042Z,1624.00
2022-10-08T07:02:44.188Z,1624.00
2022-10-08T07:03:44.110Z,1820.00
2022-10-08T07:04:44.232Z,1628.00
2022-10-08T07:05:44.329Z,2192.00
2022-10-08T07:06:44.489Z,2528.00
2022-10-08T07:07:44.591Z,1996.00
2022-10-08T07:08:44.733Z,3160.00
2022-10-08T07:09:44.836Z,2780.00
2022-10-08T07:10:44.929Z,2064.00
2022-10-08T07:11:45.127Z,1388.00
2022-10-08T07:12:45.750Z,1484.00
2022-10-08T07:13:45.357Z,1656.00
2022-10-08T07:14:45.465Z,1708.00
2022-10-08T07:15:45.565Z,2300.00
2022-10-08T07:16:45.717Z,3384.00
2022-10-08T07:17:45.768Z,5336.00
2022-10-08T07:18:46.017Z,5912.00
2022-10-08T07:19:46.183Z,3952.00
2022-10-08T07:20:46.199Z,3496.00
2022-10-08T07:21:46.346Z,4512.00
2022-10-08T07:22:46.675Z,5788.00
2022-10-08T07:23:46.619Z,3144.00
2022-10-08T07:24:46.664Z,2424.00
2022-10-08T07:25:46.765Z,3112.00
2022-10-08T07:26:46.875Z,5332.00
2022-10-08T07:27:46.986Z,5660.00
2022-10-08T07:28:47.163Z,4772.00
2022-10-08T07:29:47.272Z,2708.00
2022-10-08T07:30:47.374Z,2040.00
2022-10-08T07:31:47.497Z,2796.00
2022-10-08T07:32:47.891Z,3472.00
2022-10-08T07:33:47.818Z,3140.00
2022-10-08T07:34:47.842Z,4196.00
2022-10-08T07:35:48.023Z,3180.00
2022-10-08T07:36:48.126Z,3648.00
2022-10-08T07:37:48.224Z,3352.00
2022-10-08T07:38:48.342Z,4068.00
2022-10-08T07:39:48.441Z,5368.00
2022-10-08T07:40:48.533Z,5664.00
2022-10-08T07:41:48.669Z,4576.00
2022-10-08T07:42:49.182Z,3352.00
2022-10-08T07:43:49.060Z,3260.00
2022-10-08T07:44:49.063Z,2568.00
2022-10-08T07:45:49.210Z,2160.00
2022-10-08T07:46:49.300Z,2740.00
2022-10-08T07:47:49.390Z,6080.00
2022-10-08T07:48:49.569Z,6244.00
2022-10-08T07:49:49.689Z,6088.00
2022-10-08T07:50:49.778Z,9452.00
2022-10-08T07:51:49.910Z,8456.00
2022-10-08T07:52:50.396Z,6904.00
2022-10-08T07:53:50.160Z,3868.00
2022-10-08T07:54:50.308Z,6908.00
2022-10-08T07:55:50.386Z,4256.00
2022-10-08T07:56:50.483Z,7928.00
2022-10-08T07:57:50.588Z,5260.00
2022-10-08T07:58:50.740Z,6880.00
2022-10-08T07:59:50.841Z,8892.00
2022-10-08T08:00:50.997Z,4252.00
2022-10-08T08:01:51.164Z,3764.00
2022-10-08T08:02:51.157Z,4776.00
2022-10-08T08:03:51.297Z,6388.00
2022-10-08T08:04:51.425Z,6704.00
2022-10-08T08:05:51.523Z,5648.00
2022-10-08T08:06:51.675Z,6060.00
2022-10-08T08:07:53.330Z,6588.00
2022-10-08T08:08:52.006Z,6592.00
2022-10-08T08:09:52.085Z,4328.00
2022-10-08T08:10:52.167Z,5416.00
2022-10-08T08:11:52.315Z,8548.00
2022-10-08T08:12:52.524Z,4808.00
2022-10-08T08:13:52.599Z,6468.00
2022-10-08T08:14:52.711Z,3780.00
2022-10-08T08:15:52.837Z,5900.00
2022-10-08T08:16:52.950Z,10540.00
2022-10-08T08:17:53.043Z,11788.00
2022-10-08T08:18:53.211Z,10176.00
2022-10-08T08:19:53.294Z,4304.00
2022-10-08T08:20:53.474Z,7868.00
2022-10-08T08:21:53.657Z,6140.00
2022-10-08T08:22:53.688Z,13444.00
2022-10-08T08:23:53.883Z,14912.00
2022-10-08T08:24:53.944Z,12288.00
2022-10-08T08:25:54.073Z,10152.00
2022-10-08T08:26:57.590Z,9176.00
2022-10-08T08:27:54.337Z,5956.00
2022-10-08T08:28:54.532Z,5864.00
2022-10-08T08:29:54.603Z,6388.00
2022-10-08T08:30:54.712Z,7080.00
2022-10-08T08:31:54.916Z,8644.00
2022-10-08T08:32:54.901Z,8488.00
2022-10-08T08:33:55.103Z,10164.00
2022-10-08T08:34:55.248Z,13420.00
2022-10-08T08:35:55.292Z,11552.00
2022-10-08T08:36:55.433Z,6448.00
2022-10-08T08:37:55.538Z,8860.00
2022-10-08T08:38:55.860Z,6824.00
2022-10-08T08:39:55.803Z,9852.00
2022-10-08T08:40:55.935Z,5508.00
2022-10-08T08:41:56.155Z,7268.00
2022-10-08T08:42:56.200Z,10556.00
2022-10-08T08:43:56.460Z,9688.00
2022-10-08T08:44:56.460Z,4328.00
2022-10-08T08:45:56.637Z,3564.00
2022-10-08T08:46:56.749Z,7324.00
2022-10-08T08:47:56.860Z,7932.00
2022-10-08T08:48:57.058Z,10296.00
2022-10-08T08:49:57.147Z,9080.00
2022-10-08T08:50:57.220Z,10840.00
2022-10-08T08:51:57.338Z,10808.00
2022-10-08T08:52:57.439Z,7352.00
2022-10-08T08:53:57.662Z,13116.00
2022-10-08T08:54:57.688Z,16704.00
2022-10-08T08:55:57.790Z,16576.00
2022-10-08T08:56:57.887Z,10208.00
2022-10-08T08:57:58.046Z,16032.00
2022-10-08T08:58:58.209Z,15200.00
2022-10-08T08:59:58.255Z,7984.00
2022-10-08T09:00:58.410Z,6488.00
2022-10-08T09:02:00.126Z,8180.00
2022-10-08T09:02:58.577Z,4108.00
2022-10-08T09:03:58.814Z,5960.00
2022-10-08T09:04:58.881Z,7572.00
2022-10-08T09:05:58.928Z,9176.00
2022-10-08T09:06:59.025Z,8148.00
2022-10-08T09:07:59.198Z,8156.00
2022-10-08T09:08:59.432Z,9036.00
2022-10-08T09:10:00.025Z,9104.00
2022-10-08T09:10:59.573Z,6440.00
2022-10-08T09:11:59.677Z,10528.00
2022-10-08T09:12:59.819Z,11260.00
2022-10-08T09:14:00.003Z,7004.00
2022-10-08T09:15:00.056Z,9120.00
2022-10-08T09:16:00.156Z,10624.00
2022-10-08T09:17:00.347Z,11984.00
2022-10-08T09:18:00.386Z,5596.00
2022-10-08T09:19:00.545Z,5564.00
2022-10-08T09:20:00.647Z,11124.00
2022-10-08T09:21:00.717Z,11200.00
2022-10-08T09:22:00.892Z,7892.00
2022-10-08T09:23:00.953Z,13592.00
2022-10-08T09:24:01.093Z,15456.00
2022-10-08T09:25:01.315Z,17024.00
2022-10-08T09:26:01.306Z,16608.00
2022-10-08T09:27:01.413Z,15712.00
2022-10-08T09:28:01.674Z,14912.00
2022-10-08T09:29:01.835Z,15104.00
2022-10-08T09:30:01.822Z,14656.00
2022-10-08T09:31:05.403Z,14816.00
2022-10-08T09:32:03.055Z,16576.00
2022-10-08T09:33:02.192Z,11100.00
2022-10-08T09:34:02.363Z,6084.00
2022-10-08T09:35:02.412Z,8796.00
2022-10-08T09:36:02.523Z,11352.00
2022-10-08T09:37:02.623Z,13988.00
2022-10-08T09:38:05.855Z,8940.00
2022-10-08T09:39:03.144Z,10036.00
2022-10-08T09:40:03.024Z,17440.00
2022-10-08T09:41:03.131Z,17504.00
2022-10-08T09:42:03.331Z,13600.00
2022-10-08T09:43:03.371Z,14528.00
2022-10-08T09:44:03.654Z,14368.00
2022-10-08T09:45:03.600Z,14024.00
2022-10-08T09:46:03.751Z,14116.00
2022-10-08T09:47:03.813Z,16416.00
2022-10-08T09:48:03.927Z,12016.00
2022-10-08T09:49:04.161Z,7292.00
2022-10-08T09:50:04.180Z,9152.00
2022-10-08T09:51:04.301Z,9072.00
2022-10-08T09:52:04.391Z,6480.00
2022-10-08T09:53:04.554Z,4572.00
2022-10-08T09:54:04.881Z,3572.00
2022-10-08T09:55:04.791Z,4092.00
2022-10-08T09:56:04.890Z,5908.00
2022-10-08T09:57:05.003Z,4872.00
2022-10-08T09:58:05.132Z,11376.00
2022-10-08T09:59:05.251Z,4752.00
2022-10-08T10:00:05.414Z,5076.00
2022-10-08T10:01:05.519Z,7328.00
2022-10-08T10:02:05.651Z,4452.00
2022-10-08T10:03:05.711Z,4348.00
2022-10-08T10:04:05.945Z,10040.00
2022-10-08T10:05:05.957Z,10724.00
2022-10-08T10:06:06.062Z,15936.00
2022-10-08T10:07:06.153Z,17536.00
2022-10-08T10:08:06.323Z,18272.00
2022-10-08T10:09:06.482Z,17696.00
2022-10-08T10:10:06.602Z,14556.00
2022-10-08T10:11:06.721Z,13728.00
2022-10-08T10:12:06.826Z,12484.00
2022-10-08T10:13:06.929Z,14340.00
2022-10-08T10:14:07.051Z,18624.00
2022-10-08T10:15:07.152Z,17024.00
2022-10-08T10:16:07.253Z,23328.00
2022-10-08T10:17:07.449Z,23296.00
2022-10-08T10:18:07.533Z,21408.00
2022-10-08T10:19:07.648Z,11980.00
2022-10-08T10:20:07.772Z,18784.00
2022-10-08T10:21:07.890Z,17792.00
2022-10-08T10:22:08.028Z,19840.00
2022-10-08T10:23:08.175Z,18848.00
2022-10-08T10:24:08.281Z,8808.00
2022-10-08T10:25:08.532Z,5300.00
2022-10-08T10:26:08.530Z,3776.00
2022-10-08T10:27:08.672Z,2496.00
2022-10-08T10:28:08.817Z,2476.00
2022-10-08T10:29:09.074Z,2636.00
2022-10-08T10:30:09.165Z,3160.00
2022-10-08T10:31:09.238Z,3512.00
2022-10-08T10:32:09.318Z,3156.00
2022-10-08T10:33:09.439Z,2816.00
2022-10-08T10:34:09.583Z,2412.00
2022-10-08T10:35:09.638Z,2624.00
2022-10-08T10:36:09.739Z,2888.00
2022-10-08T10:37:09.840Z,3108.00
2022-10-08T10:38:09.980Z,3076.00
2022-10-08T10:39:10.071Z,3188.00
2022-10-08T10:40:10.402Z,3496.00
2022-10-08T10:41:10.322Z,3668.00
2022-10-08T10:42:10.449Z,4056.00
2022-10-08T10:43:10.552Z,4724.00
2022-10-08T10:44:10.688Z,11836.00
2022-10-08T10:45:10.801Z,9316.00
2022-10-08T10:46:10.951Z,9108.00
2022-10-08T10:47:11.058Z,10140.00
2022-10-08T10:48:11.166Z,9940.00
2022-10-08T10:49:11.307Z,11784.00
2022-10-08T10:50:11.416Z,12816.00
2022-10-08T10:51:11.527Z,18624.00
2022-10-08T10:52:11.643Z,24000.00
2022-10-08T10:53:11.776Z,22880.00
2022-10-08T10:54:11.928Z,19808.00
2022-10-08T10:55:12.107Z,50432.00
2022-10-08T10:56:12.137Z,49248.00
2022-10-08T10:57:12.233Z,11884.00
2022-10-08T10:58:12.334Z,10172.00
2022-10-08T10:59:12.482Z,19712.00
2022-10-08T11:00:12.594Z,11176.00
2022-10-08T11:01:12.726Z,13040.00
2022-10-08T11:02:12.845Z,38784.00
2022-10-08T11:03:13.030Z,24000.00
2022-10-08T11:04:13.085Z,15808.00
2022-10-08T11:05:13.256Z,25152.00
2022-10-08T11:06:13.312Z,24576.00
2022-10-08T11:07:13.413Z,26048.00
2022-10-08T11:08:13.503Z,29568.00
2022-10-08T11:09:13.702Z,35712.00
2022-10-08T11:10:13.822Z,35136.00
2022-10-08T11:11:13.926Z,30496.00
2022-10-08T11:12:14.033Z,19712.00
2022-10-08T11:13:14.142Z,15936.00
2022-10-08T11:14:14.254Z,15328.00
2022-10-08T11:15:14.413Z,13788.00
2022-10-08T11:16:14.502Z,18912.00
2022-10-08T11:17:17.650Z,11128.00
2022-10-08T11:18:15.713Z,9152.00
2022-10-08T11:19:14.913Z,8484.00
2022-10-08T11:20:15.007Z,8376.00
2022-10-08T11:21:15.105Z,8980.00
2022-10-08T11:22:15.219Z,10152.00
2022-10-08T11:23:15.318Z,11212.00
2022-10-08T11:24:15.451Z,10792.00
2022-10-08T11:25:15.553Z,9124.00
2022-10-08T11:26:22.485Z,8640.00
2022-10-08T11:27:16.761Z,7112.00
2022-10-08T11:28:15.933Z,6548.00
2022-10-08T11:29:16.056Z,5488.00
2022-10-08T11:30:16.407Z,4264.00
2022-10-08T11:31:16.358Z,5380.00
2022-10-08T11:32:16.389Z,6208.00
2022-10-08T11:33:16.492Z,5688.00
2022-10-08T11:34:16.649Z,5636.00
2022-10-08T11:35:16.719Z,5288.00
2022-10-08T11:36:16.861Z,5416.00
2022-10-08T11:37:16.960Z,6192.00
2022-10-08T11:38:17.063Z,7848.00
2022-10-08T11:39:17.199Z,9416.00
2022-10-08T11:40:17.392Z,12084.00
2022-10-08T11:41:17.459Z,13452.00
2022-10-08T11:42:17.558Z,16192.00
2022-10-08T11:43:17.731Z,16224.00
2022-10-08T11:44:17.867Z,15776.00
2022-10-08T11:45:17.967Z,16704.00
2022-10-08T11:46:18.141Z,16928.00
2022-10-08T11:47:18.202Z,15840.00
2022-10-08T11:48:18.309Z,15296.00
2022-10-08T11:49:18.456Z,13120.00
2022-10-08T11:50:18.578Z,13632.00
2022-10-08T11:51:18.700Z,13032.00
2022-10-08T11:52:18.806Z,12304.00
2022-10-08T11:53:18.927Z,10728.00
2022-10-08T11:54:19.096Z,8020.00
2022-10-08T11:55:19.224Z,5320.00
2022-10-08T11:56:19.267Z,5188.00
2022-10-08T11:57:19.425Z,5144.00
2022-10-08T11:58:19.524Z,4264.00
2022-10-08T11:59:19.648Z,4508.00
2022-10-08T12:00:19.765Z,4084.00
2022-10-08T12:01:19.863Z,4196.00
2022-10-08T12:02:20.125Z,4040.00
2022-10-08T12:03:20.294Z,3496.00
2022-10-08T12:04:20.255Z,3204.00
2022-10-08T12:05:20.386Z,3376.00
2022-10-08T12:06:20.497Z,3160.00
2022-10-08T12:07:20.615Z,4496.00
2022-10-08T12:08:20.726Z,4496.00
2022-10-08T12:09:20.869Z,4468.00
2022-10-08T12:10:20.966Z,3552.00
2022-10-08T12:11:21.075Z,3104.00
2022-10-08T12:12:21.204Z,2956.00
2022-10-08T12:13:21.302Z,2628.00
2022-10-08T12:14:21.471Z,2864.00
2022-10-08T12:15:21.544Z,2864.00
2022-10-08T12:16:21.749Z,2960.00
2022-10-08T12:17:21.804Z,3116.00
2022-10-08T12:18:25.777Z,4544.00
2022-10-08T12:19:22.044Z,5184.00
2022-10-08T12:20:22.154Z,6068.00
2022-10-08T12:21:22.242Z,6860.00
2022-10-08T12:22:22.402Z,8368.00
2022-10-08T12:23:22.516Z,10600.00
2022-10-08T12:24:22.681Z,12756.00
2022-10-08T12:25:22.756Z,13192.00
2022-10-08T12:26:22.850Z,13008.00
2022-10-08T12:27:23.075Z,12436.00
2022-10-08T12:28:23.139Z,13028.00
2022-10-08T12:29:23.290Z,13264.00
2022-10-08T12:30:23.472Z,12012.00
2022-10-08T12:31:23.570Z,9872.00
2022-10-08T12:32:23.653Z,6928.00
2022-10-08T12:33:23.770Z,4952.00
2022-10-08T12:34:23.920Z,3996.00
2022-10-08T12:35:23.992Z,4048.00
2022-10-08T12:36:24.093Z,3948.00
2022-10-08T12:37:24.185Z,4240.00